Time;durP1;ratioP1;P1;durP2;ratioP2;P2;SDS_P1;SDS_P2;PMS_P1;PMS_P2;Temp;Humidity;BMP_temperature;BMP_pressure;BME280_temperature;BME280_humidity;BME280_pressure;Samples;Min_cycle;Max_cycle;Signal;HPM_P1;HPM_P2
2023/09/16 00:01:22;;;;;;;12.55;8.93;;;;;;;;;;4982474;28;20046;-68
2023/09/16 00:04:09;;;;;;;12.82;9.35;;;;;;;;;;4989440;28;20029;-66
2023/09/16 00:06:56;;;;;;;12.18;7.45;;;;;;;;;;4991092;28;20113;-68
2023/09/16 00:09:41;;;;;;;13.35;9.90;;;;;;;;;;4990859;28;20031;-66
2023/09/16 00:12:27;;;;;;;13.07;9.38;;;;;;;;;;4991374;28;20030;-66
2023/09/16 00:15:12;;;;;;;13.65;9.23;;;;;;;;;;4990899;28;20057;-66
2023/09/16 00:17:57;;;;;;;12.05;8.75;;;;;;;;;;4990718;28;20030;-70
2023/09/16 00:20:43;;;;;;;10.00;8.18;;;;;;;;;;4990714;28;20033;-70
2023/09/16 00:23:28;;;;;;;13.45;7.75;;;;;;;;;;4990902;28;20038;-69
2023/09/16 00:26:13;;;;;;;12.25;7.93;;;;;;;;;;4979733;28;20037;-70
2023/09/16 00:28:59;;;;;;;10.10;7.43;;;;;;;;;;4990246;28;20027;-70
2023/09/16 00:31:44;;;;;;;12.43;7.70;;;;;;;;;;4990822;28;20385;-70
2023/09/16 00:34:29;;;;;;;11.23;8.13;;;;;;;;;;4989007;28;20030;-66
2023/09/16 00:37:15;;;;;;;9.25;7.53;;;;;;;;;;4989986;28;20041;-64
2023/09/16 00:40:00;;;;;;;10.32;7.80;;;;;;;;;;4990077;28;20081;-66
2023/09/16 00:42:45;;;;;;;10.85;8.25;;;;;;;;;;4990462;28;20036;-66
2023/09/16 00:45:30;;;;;;;12.50;8.52;;;;;;;;;;4991270;28;20180;-64
2023/09/16 00:48:18;;;;;;;12.85;8.98;;;;;;;;;;4978452;28;20045;-66
2023/09/16 00:51:04;;;;;;;10.10;7.18;;;;;;;;;;4990435;28;20389;-75
2023/09/16 00:53:51;;;;;;;11.55;8.07;;;;;;;;;;4991547;28;20031;-75
2023/09/16 00:56:36;;;;;;;14.75;8.27;;;;;;;;;;4988278;28;20022;-75
2023/09/16 00:59:22;;;;;;;11.07;7.60;;;;;;;;;;4992598;28;20038;-74
2023/09/16 01:02:09;;;;;;;13.27;8.80;;;;;;;;;;4989899;28;20022;-73
2023/09/16 01:04:55;;;;;;;12.10;8.10;;;;;;;;;;4990112;28;20401;-74
2023/09/16 01:07:41;;;;;;;11.75;8.25;;;;;;;;;;4976186;28;20571;-72
2023/09/16 01:10:27;;;;;;;9.85;7.53;;;;;;;;;;4989284;28;20600;-73
2023/09/16 01:13:12;;;;;;;10.95;7.75;;;;;;;;;;4989324;28;20046;-66
2023/09/16 01:16:01;;;;;;;11.07;7.80;;;;;;;;;;4989468;28;20023;-66
2023/09/16 01:18:54;;;;;;;11.02;7.57;;;;;;;;;;4988702;28;20080;-68
2023/09/16 01:21:39;;;;;;;11.77;7.65;;;;;;;;;;4989861;28;20022;-66
2023/09/16 01:24:24;;;;;;;11.52;7.47;;;;;;;;;;4989614;28;20057;-66
2023/09/16 01:27:09;;;;;;;11.07;8.50;;;;;;;;;;4989529;28;20018;-79
2023/09/16 01:29:55;;;;;;;9.73;7.05;;;;;;;;;;4989463;28;20069;-80
2023/09/16 01:32:44;;;;;;;11.98;7.32;;;;;;;;;;4989537;28;20532;-72
2023/09/16 01:35:32;;;;;;;11.93;7.97;;;;;;;;;;4989390;28;20039;-73
2023/09/16 01:38:21;;;;;;;11.15;7.20;;;;;;;;;;4989861;28;20038;-73
2023/09/16 01:41:07;;;;;;;11.57;8.25;;;;;;;;;;4989591;28;20580;-71
2023/09/16 01:43:53;;;;;;;11.40;7.97;;;;;;;;;;4989251;28;20462;-71
2023/09/16 01:46:38;;;;;;;12.63;8.60;;;;;;;;;;4998586;28;20449;-70
2023/09/16 01:49:23;;;;;;;13.68;8.48;;;;;;;;;;4987978;28;20058;-70
2023/09/16 01:52:08;;;;;;;10.52;7.90;;;;;;;;;;4988607;28;20034;-72
2023/09/16 01:54:54;;;;;;;10.75;7.13;;;;;;;;;;4989641;28;20026;-72
2023/09/16 01:57:39;;;;;;;10.82;8.02;;;;;;;;;;4988702;28;20026;-70
2023/09/16 02:00:24;;;;;;;11.73;7.65;;;;;;;;;;4988739;28;20038;-69
2023/09/16 02:03:10;;;;;;;11.27;8.00;;;;;;;;;;4988865;28;20015;-62
2023/09/16 02:05:55;;;;;;;10.50;7.72;;;;;;;;;;4988528;28;20477;-70
2023/09/16 02:08:40;;;;;;;10.63;7.93;;;;;;;;;;4988113;28;20088;-64
2023/09/16 02:11:25;;;;;;;10.55;7.78;;;;;;;;;;4987990;28;20034;-63
2023/09/16 02:14:12;;;;;;;15.68;8.50;;;;;;;;;;4988638;28;20026;-62
2023/09/16 02:16:57;;;;;;;11.65;8.43;;;;;;;;;;4987712;28;20022;-63
2023/09/16 02:19:42;;;;;;;11.77;7.95;;;;;;;;;;4988346;28;20034;-66
2023/09/16 02:22:27;;;;;;;11.07;8.07;;;;;;;;;;4987760;28;20041;-74
2023/09/16 02:25:15;;;;;;;12.65;8.75;;;;;;;;;;4987450;28;20105;-69
2023/09/16 02:28:01;;;;;;;10.57;8.25;;;;;;;;;;4988497;28;20370;-74
2023/09/16 02:30:47;;;;;;;11.30;8.43;;;;;;;;;;4988815;28;20041;-73
2023/09/16 02:33:33;;;;;;;10.60;7.85;;;;;;;;;;4988438;28;20030;-74
2023/09/16 02:36:18;;;;;;;10.57;8.13;;;;;;;;;;4988641;28;20038;-73
2023/09/16 02:39:03;;;;;;;12.68;9.10;;;;;;;;;;4988324;28;20491;-70
2023/09/16 02:41:49;;;;;;;12.43;8.68;;;;;;;;;;4988156;28;20030;-71
2023/09/16 02:44:34;;;;;;;11.27;8.38;;;;;;;;;;4987626;28;20496;-65
2023/09/16 02:47:22;;;;;;;11.55;8.27;;;;;;;;;;5001590;28;20040;-62
2023/09/16 02:50:08;;;;;;;12.90;8.20;;;;;;;;;;4988341;28;20402;-65
2023/09/16 02:52:53;;;;;;;12.25;8.57;;;;;;;;;;5003182;28;20069;-67
2023/09/16 02:55:38;;;;;;;10.10;7.72;;;;;;;;;;4993027;28;20038;-67
2023/09/16 02:58:23;;;;;;;10.82;7.68;;;;;;;;;;4992240;28;20030;-70
2023/09/16 03:01:09;;;;;;;12.85;8.05;;;;;;;;;;4990012;28;20025;-74
2023/09/16 03:03:55;;;;;;;9.77;6.97;;;;;;;;;;4992115;28;20066;-63
2023/09/16 03:06:40;;;;;;;13.73;8.82;;;;;;;;;;4992385;28;20045;-63
2023/09/16 03:09:25;;;;;;;13.43;8.27;;;;;;;;;;4991720;28;20046;-66
2023/09/16 03:12:10;;;;;;;10.43;7.68;;;;;;;;;;4992190;28;20386;-65
2023/09/16 03:14:56;;;;;;;10.60;7.40;;;;;;;;;;4991784;28;20141;-63
2023/09/16 03:17:41;;;;;;;13.25;8.70;;;;;;;;;;4991335;28;20027;-68
2023/09/16 03:20:26;;;;;;;10.77;7.80;;;;;;;;;;4990730;28;20401;-69
2023/09/16 03:23:12;;;;;;;11.20;7.88;;;;;;;;;;4991414;28;20026;-68
2023/09/16 03:25:57;;;;;;;10.93;8.77;;;;;;;;;;5004204;28;20113;-68
2023/09/16 03:28:47;;;;;;;12.88;7.97;;;;;;;;;;4991162;28;20374;-68
2023/09/16 03:31:32;;;;;;;11.10;7.90;;;;;;;;;;4977985;28;20170;-70
2023/09/16 03:34:17;;;;;;;9.93;7.50;;;;;;;;;;4991417;28;20033;-71
2023/09/16 03:37:02;;;;;;;11.68;8.43;;;;;;;;;;4990999;28;20038;-68
2023/09/16 03:39:47;;;;;;;12.75;7.95;;;;;;;;;;4990640;28;20113;-76
2023/09/16 03:42:33;;;;;;;11.15;7.97;;;;;;;;;;4990374;28;20112;-75
2023/09/16 03:45:18;;;;;;;12.90;7.18;;;;;;;;;;4990540;28;20069;-76
2023/09/16 03:48:03;;;;;;;14.80;8.43;;;;;;;;;;5002185;28;20053;-76
2023/09/16 03:50:49;;;;;;;10.00;7.05;;;;;;;;;;4991371;28;20022;-76
2023/09/16 03:53:34;;;;;;;10.15;7.13;;;;;;;;;;4997880;28;20030;-72
2023/09/16 03:56:20;;;;;;;12.07;8.07;;;;;;;;;;4991157;28;20066;-70
2023/09/16 03:59:05;;;;;;;12.55;8.10;;;;;;;;;;4990719;28;20057;-70
2023/09/16 04:01:50;;;;;;;13.65;7.43;;;;;;;;;;4990809;28;20447;-69
2023/09/16 04:04:35;;;;;;;13.45;8.43;;;;;;;;;;4991083;28;20038;-68
2023/09/16 04:07:21;;;;;;;10.68;7.43;;;;;;;;;;4984310;28;20035;-67
2023/09/16 04:10:09;;;;;;;9.63;6.72;;;;;;;;;;4990661;28;20022;-69
2023/09/16 04:12:54;;;;;;;10.98;7.38;;;;;;;;;;4990984;28;20034;-68
2023/09/16 04:15:40;;;;;;;10.90;7.88;;;;;;;;;;4990216;28;20101;-71
2023/09/16 04:18:25;;;;;;;12.63;7.20;;;;;;;;;;4990178;28;20038;-69
2023/09/16 04:21:10;;;;;;;11.57;8.00;;;;;;;;;;4990601;28;20034;-82
2023/09/16 04:23:55;;;;;;;10.90;7.35;;;;;;;;;;4990265;28;20527;-74
2023/09/16 04:26:40;;;;;;;11.93;8.20;;;;;;;;;;4990620;28;20034;-69
2023/09/16 04:29:26;;;;;;;10.98;7.72;;;;;;;;;;4984236;28;20052;-70
2023/09/16 04:32:11;;;;;;;10.23;7.72;;;;;;;;;;4988028;28;20030;-70
2023/09/16 04:34:59;;;;;;;12.40;8.50;;;;;;;;;;4990328;28;20031;-66
2023/09/16 04:37:44;;;;;;;11.25;7.63;;;;;;;;;;4990590;28;20121;-72
2023/09/16 04:40:29;;;;;;;10.80;7.15;;;;;;;;;;4990268;28;20026;-69
2023/09/16 04:43:15;;;;;;;11.93;8.80;;;;;;;;;;4990101;28;20062;-72
2023/09/16 04:46:00;;;;;;;10.93;7.97;;;;;;;;;;4995003;28;20026;-72
2023/09/16 04:48:47;;;;;;;10.52;7.57;;;;;;;;;;4989827;28;20027;-69
2023/09/16 04:51:33;;;;;;;12.38;8.70;;;;;;;;;;4990080;28;20042;-71
2023/09/16 04:54:18;;;;;;;10.23;7.43;;;;;;;;;;4995167;28;20050;-66
2023/09/16 04:57:04;;;;;;;11.55;8.40;;;;;;;;;;4990097;28;20474;-66
2023/09/16 04:59:49;;;;;;;12.02;8.65;;;;;;;;;;4989855;28;20026;-65
2023/09/16 05:02:34;;;;;;;12.48;8.13;;;;;;;;;;4989718;28;20053;-66
2023/09/16 05:05:19;;;;;;;11.40;8.45;;;;;;;;;;4989977;28;20061;-66
2023/09/16 05:08:05;;;;;;;12.85;9.07;;;;;;;;;;4988998;28;20076;-73
2023/09/16 05:10:57;;;;;;;10.52;8.30;;;;;;;;;;4988929;28;20077;-63
2023/09/16 05:13:45;;;;;;;15.38;9.13;;;;;;;;;;4989722;28;20042;-65
2023/09/16 05:16:30;;;;;;;11.30;8.73;;;;;;;;;;4988249;28;20054;-63
2023/09/16 05:19:15;;;;;;;13.27;9.80;;;;;;;;;;4986375;28;20062;-65
2023/09/16 05:22:03;;;;;;;12.35;9.52;;;;;;;;;;4986437;28;20030;-64
2023/09/16 05:24:48;;;;;;;13.63;10.02;;;;;;;;;;5002521;28;20022;-66
2023/09/16 05:27:33;;;;;;;12.48;9.23;;;;;;;;;;4977406;28;20104;-74
2023/09/16 05:30:19;;;;;;;13.20;10.15;;;;;;;;;;5009435;23;20094;-65
2023/09/16 05:33:04;;;;;;;14.13;9.77;;;;;;;;;;4996045;28;20038;-66
2023/09/16 05:35:49;;;;;;;13.20;8.85;;;;;;;;;;4993015;28;20415;-63
2023/09/16 05:38:34;;;;;;;13.38;9.68;;;;;;;;;;4988630;28;20103;-64
2023/09/16 05:41:20;;;;;;;12.80;9.02;;;;;;;;;;4985121;28;20465;-61
2023/09/16 05:44:05;;;;;;;13.20;8.95;;;;;;;;;;4990233;28;20026;-67
2023/09/16 05:46:50;;;;;;;12.27;9.25;;;;;;;;;;5006593;28;20386;-74
2023/09/16 05:49:35;;;;;;;12.70;8.95;;;;;;;;;;4995331;28;20112;-68
2023/09/16 05:52:21;;;;;;;13.40;10.25;;;;;;;;;;4995132;28;20060;-73
2023/09/16 05:55:06;;;;;;;16.00;10.60;;;;;;;;;;5003972;28;20080;-71
2023/09/16 05:57:51;;;;;;;16.02;9.32;;;;;;;;;;4994938;28;20038;-71
2023/09/16 06:00:37;;;;;;;11.82;8.98;;;;;;;;;;4994696;28;20038;-71
2023/09/16 06:03:22;;;;;;;13.32;10.20;;;;;;;;;;4994294;28;20117;-74
2023/09/16 06:06:07;;;;;;;16.50;10.98;;;;;;;;;;5000762;28;20041;-66
2023/09/16 06:08:52;;;;;;;16.85;10.93;;;;;;;;;;4998200;28;20124;-67
2023/09/16 06:11:38;;;;;;;16.60;11.65;;;;;;;;;;5002272;28;20453;-71
2023/09/16 06:14:23;;;;;;;16.20;11.80;;;;;;;;;;5006353;28;20041;-71
2023/09/16 06:17:08;;;;;;;15.05;10.10;;;;;;;;;;5001098;28;20033;-70
2023/09/16 06:19:55;;;;;;;15.25;11.77;;;;;;;;;;4993593;28;20037;-70
2023/09/16 06:22:40;;;;;;;16.83;11.55;;;;;;;;;;5001767;28;20103;-64
2023/09/16 06:25:26;;;;;;;14.65;10.68;;;;;;;;;;5010349;28;20267;-71
2023/09/16 06:28:11;;;;;;;15.23;10.75;;;;;;;;;;5007870;28;20366;-71
2023/09/16 06:30:56;;;;;;;16.50;11.50;;;;;;;;;;4963193;28;20042;-71
2023/09/16 06:33:41;;;;;;;13.38;10.05;;;;;;;;;;5007440;28;20026;-68
2023/09/16 06:36:26;;;;;;;16.80;12.27;;;;;;;;;;5006053;28;20033;-66
2023/09/16 06:39:12;;;;;;;17.38;12.75;;;;;;;;;;5008148;28;20056;-70
2023/09/16 06:41:57;;;;;;;16.67;12.95;;;;;;;;;;4993134;28;20465;-67
2023/09/16 06:44:43;;;;;;;15.70;10.80;;;;;;;;;;5012940;28;20485;-69
2023/09/16 06:47:28;;;;;;;16.67;10.65;;;;;;;;;;5011387;28;20037;-68
2023/09/16 06:50:13;;;;;;;14.27;11.63;;;;;;;;;;5012952;28;20136;-70
2023/09/16 06:52:59;;;;;;;15.35;10.50;;;;;;;;;;5012783;28;20022;-71
2023/09/16 06:55:45;;;;;;;18.52;11.73;;;;;;;;;;4991125;28;20026;-70
2023/09/16 06:58:31;;;;;;;13.95;11.15;;;;;;;;;;4990002;28;20038;-71
2023/09/16 07:01:16;;;;;;;14.10;10.10;;;;;;;;;;4982290;28;20033;-67
2023/09/16 07:04:01;;;;;;;15.57;12.00;;;;;;;;;;4985259;28;20026;-69
2023/09/16 07:06:46;;;;;;;16.40;11.25;;;;;;;;;;4993928;28;20041;-68
2023/09/16 07:09:32;;;;;;;15.48;10.50;;;;;;;;;;5003415;28;20041;-70
2023/09/16 07:12:17;;;;;;;12.93;9.75;;;;;;;;;;4985523;28;20080;-68
2023/09/16 07:15:02;;;;;;;15.77;10.95;;;;;;;;;;4993843;28;20038;-68
2023/09/16 07:17:47;;;;;;;13.82;10.32;;;;;;;;;;4994668;28;20029;-77
2023/09/16 07:20:33;;;;;;;13.98;9.68;;;;;;;;;;4995064;28;20049;-69
2023/09/16 07:23:18;;;;;;;12.98;8.82;;;;;;;;;;4993784;28;20037;-69
2023/09/16 07:26:03;;;;;;;14.25;9.20;;;;;;;;;;4995350;28;20042;-69
2023/09/16 07:28:48;;;;;;;14.82;9.60;;;;;;;;;;5007493;28;20030;-67
2023/09/16 07:31:34;;;;;;;15.10;9.25;;;;;;;;;;4980065;28;20038;-68
2023/09/16 07:34:20;;;;;;;12.13;8.95;;;;;;;;;;5007335;28;20028;-70
2023/09/16 07:37:06;;;;;;;14.02;9.32;;;;;;;;;;4993994;28;20440;-74
2023/09/16 07:39:51;;;;;;;10.98;7.60;;;;;;;;;;5000954;28;20033;-69
2023/09/16 07:42:37;;;;;;;11.80;7.70;;;;;;;;;;4994933;28;20133;-70
2023/09/16 07:45:22;;;;;;;10.85;7.43;;;;;;;;;;4997181;28;20096;-71
2023/09/16 07:48:09;;;;;;;11.05;7.95;;;;;;;;;;5008184;28;20049;-69
2023/09/16 07:50:54;;;;;;;10.82;8.50;;;;;;;;;;4997467;28;20029;-71
2023/09/16 07:53:39;;;;;;;9.45;7.25;;;;;;;;;;5004778;28;20107;-72
2023/09/16 07:56:25;;;;;;;10.18;7.60;;;;;;;;;;5005270;28;20029;-75
2023/09/16 07:59:10;;;;;;;10.07;7.53;;;;;;;;;;4996833;28;20492;-76
2023/09/16 08:01:55;;;;;;;10.02;7.20;;;;;;;;;;5010997;28;20029;-72
2023/09/16 08:04:40;;;;;;;11.65;7.40;;;;;;;;;;4999886;28;20040;-75
2023/09/16 08:07:26;;;;;;;8.98;6.63;;;;;;;;;;4997141;28;20046;-73
2023/09/16 08:10:11;;;;;;;9.43;7.35;;;;;;;;;;4997309;28;20162;-76
2023/09/16 08:12:56;;;;;;;12.48;9.45;;;;;;;;;;4983688;28;20044;-72
2023/09/16 08:15:41;;;;;;;11.30;7.18;;;;;;;;;;4996975;28;20065;-72
2023/09/16 08:18:27;;;;;;;11.38;8.15;;;;;;;;;;4996248;28;20068;-71
2023/09/16 08:21:12;;;;;;;9.45;7.10;;;;;;;;;;4996836;28;20036;-71
2023/09/16 08:23:57;;;;;;;8.27;6.18;;;;;;;;;;4984261;28;20034;-70
2023/09/16 08:26:42;;;;;;;7.35;5.68;;;;;;;;;;5010513;28;20441;-71
2023/09/16 08:29:28;;;;;;;7.50;5.90;;;;;;;;;;4983668;28;20038;-70
2023/09/16 08:32:13;;;;;;;9.50;6.45;;;;;;;;;;4982539;28;20108;-70
2023/09/16 08:34:58;;;;;;;7.43;6.25;;;;;;;;;;4996693;28;20367;-73
2023/09/16 08:37:44;;;;;;;7.93;6.00;;;;;;;;;;4996534;28;20034;-71
2023/09/16 08:40:32;;;;;;;9.60;6.10;;;;;;;;;;5006478;28;20037;-71
2023/09/16 08:43:33;;;;;;;8.77;5.60;;;;;;;;;;4996669;28;20096;-70
2023/09/16 08:46:21;;;;;;;8.48;5.82;;;;;;;;;;5004031;28;20025;-74
2023/09/16 08:49:07;;;;;;;6.95;4.88;;;;;;;;;;4999003;28;20034;-78
2023/09/16 08:51:53;;;;;;;8.30;6.13;;;;;;;;;;5009672;28;20080;-75
2023/09/16 08:54:41;;;;;;;11.48;6.18;;;;;;;;;;4990124;28;20108;-71
2023/09/16 08:57:26;;;;;;;7.45;5.35;;;;;;;;;;4999445;28;20084;-71
2023/09/16 09:00:12;;;;;;;11.70;7.57;;;;;;;;;;4995580;28;20033;-71
2023/09/16 09:02:57;;;;;;;8.70;6.63;;;;;;;;;;4982718;28;20044;-70
2023/09/16 09:05:44;;;;;;;8.20;6.85;;;;;;;;;;5009950;28;20104;-70
2023/09/16 09:08:31;;;;;;;8.48;5.70;;;;;;;;;;5008987;28;20037;-65
2023/09/16 09:11:18;;;;;;;9.05;7.05;;;;;;;;;;4993869;28;20431;-64
2023/09/16 09:14:03;;;;;;;8.65;5.63;;;;;;;;;;5009730;28;20374;-66
2023/09/16 09:16:49;;;;;;;10.88;6.25;;;;;;;;;;5008949;28;20041;-64
2023/09/16 09:19:35;;;;;;;8.52;5.00;;;;;;;;;;5009199;28;20037;-65
2023/09/16 09:22:20;;;;;;;6.70;5.35;;;;;;;;;;4995525;28;20030;-62
2023/09/16 09:25:07;;;;;;;10.75;5.22;;;;;;;;;;4996142;28;20446;-65
2023/09/16 09:27:53;;;;;;;9.52;6.30;;;;;;;;;;5009018;28;20042;-70
2023/09/16 09:30:40;;;;;;;9.30;5.47;;;;;;;;;;4982149;28;20037;-68
2023/09/16 09:33:26;;;;;;;7.63;4.82;;;;;;;;;;4995507;28;20112;-64
2023/09/16 09:36:13;;;;;;;6.90;5.25;;;;;;;;;;4995487;28;20030;-64
2023/09/16 09:38:58;;;;;;;7.75;5.22;;;;;;;;;;4995359;28;20018;-66
2023/09/16 09:41:45;;;;;;;15.18;5.45;;;;;;;;;;5002614;28;20112;-64
2023/09/16 09:44:32;;;;;;;7.13;5.13;;;;;;;;;;5008835;28;20042;-71
2023/09/16 09:47:17;;;;;;;8.93;5.82;;;;;;;;;;5008447;28;20033;-72
2023/09/16 09:50:03;;;;;;;14.15;5.32;;;;;;;;;;4995114;28;20044;-73
2023/09/16 09:52:50;;;;;;;8.15;5.57;;;;;;;;;;4995802;28;20104;-66
2023/09/16 09:55:37;;;;;;;7.75;5.63;;;;;;;;;;5010031;28;20515;-66
2023/09/16 09:58:23;;;;;;;7.63;5.20;;;;;;;;;;5008922;28;20029;-71
2023/09/16 10:01:08;;;;;;;7.35;5.22;;;;;;;;;;4994574;28;20453;-75
2023/09/16 10:03:53;;;;;;;7.53;5.10;;;;;;;;;;4994907;28;20511;-68
2023/09/16 10:06:39;;;;;;;9.35;5.10;;;;;;;;;;4994640;28;20128;-67
2023/09/16 10:09:24;;;;;;;9.30;5.38;;;;;;;;;;4994284;28;20038;-65
2023/09/16 10:12:10;;;;;;;7.18;4.82;;;;;;;;;;4995041;28;20033;-63
2023/09/16 10:14:55;;;;;;;11.20;5.57;;;;;;;;;;4994930;28;20029;-62
2023/09/16 10:17:41;;;;;;;5.78;4.82;;;;;;;;;;4994615;28;20081;-64
2023/09/16 10:20:35;;;;;;;11.80;5.57;;;;;;;;;;4994493;28;20286;-65
2023/09/16 10:23:20;;;;;;;7.65;5.43;;;;;;;;;;5008042;28;20405;-63
2023/09/16 10:26:06;;;;;;;25.92;6.68;;;;;;;;;;4993323;28;20041;-67
2023/09/16 10:28:53;;;;;;;7.43;4.90;;;;;;;;;;5008006;28;20037;-68
2023/09/16 10:31:40;;;;;;;15.13;5.72;;;;;;;;;;4994489;28;20037;-68
2023/09/16 10:34:25;;;;;;;7.30;4.55;;;;;;;;;;4994630;28;20038;-69
2023/09/16 10:37:12;;;;;;;8.07;4.63;;;;;;;;;;4994845;28;20142;-70
2023/09/16 10:39:59;;;;;;;11.10;5.38;;;;;;;;;;5002548;28;20183;-70
2023/09/16 10:42:45;;;;;;;8.50;5.35;;;;;;;;;;4981696;28;20053;-67
2023/09/16 10:45:31;;;;;;;5.53;4.20;;;;;;;;;;4995380;28;20113;-65
2023/09/16 10:48:16;;;;;;;7.20;4.22;;;;;;;;;;4995052;28;20169;-68
2023/09/16 10:51:05;;;;;;;7.15;5.05;;;;;;;;;;4994424;28;20029;-70
2023/09/16 10:53:53;;;;;;;5.50;4.40;;;;;;;;;;4999398;28;20485;-66
2023/09/16 10:56:41;;;;;;;11.23;5.47;;;;;;;;;;4990921;28;20069;-65
2023/09/16 10:59:28;;;;;;;8.60;5.57;;;;;;;;;;4993803;28;20489;-77
2023/09/16 11:02:34;;;;;;;8.15;4.60;;;;;;;;;;4993598;28;20042;-67
2023/09/16 11:05:19;;;;;;;6.65;4.55;;;;;;;;;;4980801;28;20113;-64
2023/09/16 11:08:05;;;;;;;4.18;3.67;;;;;;;;;;5007852;28;20022;-65
2023/09/16 11:10:50;;;;;;;6.82;4.03;;;;;;;;;;4994432;28;20072;-67
2023/09/16 11:13:36;;;;;;;6.30;4.60;;;;;;;;;;4994353;28;20124;-69
2023/09/16 11:16:21;;;;;;;5.68;3.58;;;;;;;;;;4993594;28;20018;-72
2023/09/16 11:19:19;;;;;;;8.95;5.20;;;;;;;;;;5010861;28;20046;-74
2023/09/16 11:22:04;;;;;;;5.57;3.90;;;;;;;;;;5011520;28;20036;-71
2023/09/16 11:24:52;;;;;;;5.10;3.38;;;;;;;;;;4998754;28;20040;-63
2023/09/16 11:27:37;;;;;;;5.32;3.60;;;;;;;;;;5011299;28;20045;-66
2023/09/16 11:30:22;;;;;;;3.72;2.38;;;;;;;;;;4997722;28;20026;-69
2023/09/16 11:33:24;;;;;;;4.50;3.03;;;;;;;;;;4988757;28;20034;-69
2023/09/16 11:36:10;;;;;;;6.05;4.20;;;;;;;;;;4990076;28;20384;-73
2023/09/16 11:39:10;;;;;;;5.15;3.03;;;;;;;;;;5001812;28;20033;-72
2023/09/16 11:41:55;;;;;;;5.75;4.45;;;;;;;;;;5015599;28;20099;-71
2023/09/16 11:44:41;;;;;;;4.95;3.08;;;;;;;;;;5000036;28;20081;-71
2023/09/16 11:47:30;;;;;;;4.70;3.22;;;;;;;;;;5003484;28;20041;-76
2023/09/16 11:50:33;;;;;;;7.03;3.80;;;;;;;;;;5000661;28;20643;-70
2023/09/16 11:53:19;;;;;;;5.75;3.55;;;;;;;;;;5014710;28;20033;-72
2023/09/16 11:56:04;;;;;;;6.85;3.65;;;;;;;;;;5010953;28;20038;-73
2023/09/16 11:58:50;;;;;;;5.18;3.50;;;;;;;;;;5003469;28;20049;-72
2023/09/16 12:01:36;;;;;;;5.53;3.50;;;;;;;;;;5000748;28;20068;-69
2023/09/16 12:04:22;;;;;;;4.80;3.15;;;;;;;;;;5000173;28;20129;-72
2023/09/16 12:07:07;;;;;;;5.53;3.28;;;;;;;;;;4975790;28;20508;-72
2023/09/16 12:09:53;;;;;;;4.95;2.42;;;;;;;;;;5006617;28;20049;-72
2023/09/16 12:12:38;;;;;;;3.85;2.65;;;;;;;;;;5008971;28;20103;-72
2023/09/16 12:15:25;;;;;;;3.15;2.30;;;;;;;;;;4982854;28;20201;-73
2023/09/16 12:18:10;;;;;;;2.70;2.13;;;;;;;;;;4996560;28;20026;-73
2023/09/16 12:20:55;;;;;;;4.78;2.78;;;;;;;;;;4994228;28;20465;-72
2023/09/16 12:23:41;;;;;;;6.55;2.58;;;;;;;;;;4993787;28;20028;-72
2023/09/16 12:26:26;;;;;;;4.15;3.20;;;;;;;;;;4987106;28;20124;-75
2023/09/16 12:29:12;;;;;;;3.15;2.47;;;;;;;;;;5005481;28;20034;-70
2023/09/16 12:32:08;;;;;;;3.40;2.70;;;;;;;;;;4996473;28;20377;-69
2023/09/16 12:35:06;;;;;;;5.00;2.92;;;;;;;;;;5010048;28;20065;-68
2023/09/16 12:37:51;;;;;;;6.00;2.72;;;;;;;;;;5009628;28;20042;-70
2023/09/16 12:40:36;;;;;;;3.45;2.55;;;;;;;;;;5009891;28;20037;-66
2023/09/16 12:43:22;;;;;;;3.47;2.63;;;;;;;;;;5004286;28;20065;-67
2023/09/16 12:46:08;;;;;;;2.85;2.30;;;;;;;;;;4995496;28;20029;-70
2023/09/16 12:48:54;;;;;;;3.10;2.53;;;;;;;;;;5000271;28;20126;-70
2023/09/16 12:51:39;;;;;;;3.28;2.92;;;;;;;;;;4996068;28;20041;-71
2023/09/16 12:54:24;;;;;;;5.72;2.78;;;;;;;;;;5004954;28;20084;-73
2023/09/16 12:57:12;;;;;;;3.15;2.65;;;;;;;;;;4996327;28;20473;-70
2023/09/16 13:00:03;;;;;;;4.22;2.85;;;;;;;;;;5019371;28;20075;-69
2023/09/16 13:02:49;;;;;;;3.35;2.60;;;;;;;;;;4995943;28;20038;-70
2023/09/16 13:05:35;;;;;;;4.22;2.47;;;;;;;;;;4995833;28;20038;-71
2023/09/16 13:08:21;;;;;;;4.13;3.22;;;;;;;;;;5007169;28;20096;-69
2023/09/16 13:11:07;;;;;;;2.75;2.22;;;;;;;;;;4995181;28;20050;-68
2023/09/16 13:13:55;;;;;;;3.50;2.80;;;;;;;;;;4995288;28;20084;-68
2023/09/16 13:16:41;;;;;;;5.75;3.10;;;;;;;;;;4995591;28;20390;-66
2023/09/16 13:19:26;;;;;;;3.72;2.75;;;;;;;;;;4994981;28;20061;-68
2023/09/16 13:22:12;;;;;;;2.97;2.20;;;;;;;;;;4995872;28;20095;-69
2023/09/16 13:24:57;;;;;;;3.90;2.65;;;;;;;;;;4995317;28;20520;-72
2023/09/16 13:27:42;;;;;;;3.28;2.08;;;;;;;;;;5000041;28;20053;-73
2023/09/16 13:30:27;;;;;;;3.20;2.30;;;;;;;;;;4997458;28;20050;-73
2023/09/16 13:33:13;;;;;;;3.10;2.55;;;;;;;;;;4995067;28;20132;-73
2023/09/16 13:35:59;;;;;;;5.20;3.25;;;;;;;;;;4995173;28;20030;-72
2023/09/16 13:38:46;;;;;;;3.38;2.30;;;;;;;;;;4995380;28;20042;-76
2023/09/16 13:41:31;;;;;;;3.58;2.28;;;;;;;;;;4997695;28;20259;-75
2023/09/16 13:44:17;;;;;;;5.25;2.60;;;;;;;;;;5006041;28;20026;-82
2023/09/16 13:47:03;;;;;;;18.60;5.05;;;;;;;;;;5008865;28;20193;-69
2023/09/16 13:49:57;;;;;;;6.55;3.92;;;;;;;;;;4994603;28;20216;-68
2023/09/16 13:52:43;;;;;;;5.93;3.33;;;;;;;;;;4994881;28;20069;-69
2023/09/16 13:55:28;;;;;;;3.70;2.63;;;;;;;;;;4995313;28;20124;-72
2023/09/16 13:58:13;;;;;;;3.97;2.53;;;;;;;;;;4985743;28;20037;-74
2023/09/16 14:00:59;;;;;;;4.10;2.97;;;;;;;;;;4991665;28;20436;-69
2023/09/16 14:03:44;;;;;;;2.75;2.10;;;;;;;;;;5000174;28;20041;-72
2023/09/16 14:06:29;;;;;;;3.65;2.35;;;;;;;;;;5008223;28;20458;-72
2023/09/16 14:09:14;;;;;;;2.67;2.13;;;;;;;;;;5009112;28;20051;-75
2023/09/16 14:12:00;;;;;;;7.57;3.08;;;;;;;;;;4989329;28;20040;-74
2023/09/16 14:14:45;;;;;;;5.57;2.92;;;;;;;;;;4992544;28;20033;-72
2023/09/16 14:17:30;;;;;;;3.08;2.55;;;;;;;;;;4982370;28;20150;-73
2023/09/16 14:20:16;;;;;;;7.13;2.70;;;;;;;;;;5004085;28;20384;-78
2023/09/16 14:23:03;;;;;;;11.70;3.50;;;;;;;;;;5008106;28;20038;-70
2023/09/16 14:25:49;;;;;;;8.25;3.50;;;;;;;;;;5007190;28;20049;-68
2023/09/16 14:28:34;;;;;;;4.03;2.45;;;;;;;;;;5008141;28;20053;-71
2023/09/16 14:31:20;;;;;;;5.10;3.35;;;;;;;;;;4998579;28;20492;-69
2023/09/16 14:34:05;;;;;;;4.93;3.50;;;;;;;;;;4994378;28;20033;-68
2023/09/16 14:36:50;;;;;;;4.82;3.45;;;;;;;;;;4981153;28;20033;-71
2023/09/16 14:39:35;;;;;;;4.18;3.25;;;;;;;;;;5016565;28;20042;-71
2023/09/16 14:42:21;;;;;;;5.32;3.80;;;;;;;;;;4993843;28;20529;-77
2023/09/16 14:45:06;;;;;;;9.82;3.80;;;;;;;;;;5002023;28;20061;-74
2023/09/16 14:47:52;;;;;;;6.45;3.33;;;;;;;;;;4980739;28;20048;-77
2023/09/16 14:50:37;;;;;;;6.45;3.17;;;;;;;;;;4980037;28;20033;-74
2023/09/16 14:53:22;;;;;;;5.10;3.45;;;;;;;;;;5013356;28;20507;-71
2023/09/16 14:56:09;;;;;;;3.75;2.40;;;;;;;;;;4995099;28;20461;-72
2023/09/16 14:58:54;;;;;;;3.78;2.45;;;;;;;;;;4993353;28;20037;-74
2023/09/16 15:01:40;;;;;;;4.25;2.78;;;;;;;;;;5001420;28;20034;-73
2023/09/16 15:04:25;;;;;;;4.05;3.03;;;;;;;;;;5026405;28;20032;-74
2023/09/16 15:07:11;;;;;;;4.80;3.20;;;;;;;;;;5017536;28;20116;-71
2023/09/16 15:09:57;;;;;;;5.00;3.20;;;;;;;;;;4975673;28;20045;-75
2023/09/16 15:12:42;;;;;;;4.50;3.03;;;;;;;;;;4998066;28;20045;-73
2023/09/16 15:15:27;;;;;;;7.25;2.58;;;;;;;;;;4998158;28;20034;-69
2023/09/16 15:18:12;;;;;;;3.75;2.72;;;;;;;;;;4994920;28;20264;-76
2023/09/16 15:20:57;;;;;;;3.75;2.28;;;;;;;;;;5004029;28;20046;-74
2023/09/16 15:23:43;;;;;;;5.75;3.03;;;;;;;;;;5025707;28;20029;-75
2023/09/16 15:26:30;;;;;;;3.40;2.38;;;;;;;;;;5006877;28;20040;-70
2023/09/16 15:29:15;;;;;;;7.18;2.95;;;;;;;;;;5005146;28;20526;-75
2023/09/16 15:32:00;;;;;;;2.65;2.00;;;;;;;;;;5007056;28;20092;-72
2023/09/16 15:34:45;;;;;;;3.72;2.17;;;;;;;;;;5011815;28;20461;-65
2023/09/16 15:37:30;;;;;;;2.70;2.35;;;;;;;;;;5016672;28;20036;-70
2023/09/16 15:40:16;;;;;;;4.75;2.33;;;;;;;;;;5009817;28;20033;-67
2023/09/16 15:43:01;;;;;;;2.17;1.98;;;;;;;;;;5013749;28;20072;-71
2023/09/16 15:45:54;;;;;;;3.25;2.42;;;;;;;;;;5009338;28;20384;-69
2023/09/16 15:48:39;;;;;;;5.63;2.72;;;;;;;;;;5007300;28;20484;-68
2023/09/16 15:51:25;;;;;;;3.42;2.65;;;;;;;;;;5012435;28;20372;-78
2023/09/16 15:54:10;;;;;;;5.03;2.35;;;;;;;;;;5017810;28;20113;-69
2023/09/16 15:56:55;;;;;;;4.35;2.28;;;;;;;;;;5010709;28;20033;-67
2023/09/16 15:59:40;;;;;;;3.60;1.98;;;;;;;;;;5017078;28;20030;-66
2023/09/16 16:02:26;;;;;;;4.15;2.40;;;;;;;;;;5009193;28;20396;-67
2023/09/16 16:05:11;;;;;;;4.53;1.73;;;;;;;;;;4986228;28;20030;-67
2023/09/16 16:07:56;;;;;;;6.65;2.50;;;;;;;;;;4998973;28;20393;-68
2023/09/16 16:10:44;;;;;;;3.75;2.65;;;;;;;;;;4998952;28;20071;-73
2023/09/16 16:13:30;;;;;;;3.55;2.80;;;;;;;;;;4996903;28;20499;-72
2023/09/16 16:16:16;;;;;;;3.78;2.30;;;;;;;;;;4986911;28;20053;-69
2023/09/16 16:19:01;;;;;;;3.95;2.60;;;;;;;;;;4996512;28;20129;-68
2023/09/16 16:21:47;;;;;;;4.53;2.72;;;;;;;;;;4996847;28;20057;-70
2023/09/16 16:24:32;;;;;;;3.38;2.22;;;;;;;;;;4996895;28;20089;-69
2023/09/16 16:27:19;;;;;;;3.50;2.15;;;;;;;;;;5010223;28;20538;-68